Time;durP1;ratioP1;P1;durP2;ratioP2;P2;SDS_P1;SDS_P2;PMS_P1;PMS_P2;Temp;Humidity;BMP_temperature;BMP_pressure;BME280_temperature;BME280_humidity;BME280_pressure;Samples;Min_cycle;Max_cycle;Signal;HPM_P1;HPM_P2
2021/12/04 00:00:12;;;;;;;2.90;2.63;;;5.10;99.90;;;;;;5067646;28;20450;-84
2021/12/04 00:02:38;;;;;;;3.00;2.80;;;5.10;99.90;;;;;;5056678;28;20601;-83
2021/12/04 00:05:05;;;;;;;3.10;2.90;;;5.20;99.90;;;;;;5058381;28;20930;-85
2021/12/04 00:07:33;;;;;;;3.07;2.87;;;5.00;99.90;;;;;;5035665;28;20436;-85
2021/12/04 00:10:02;;;;;;;2.83;2.63;;;5.00;99.90;;;;;;5058966;28;20415;-83
2021/12/04 00:12:30;;;;;;;3.50;2.70;;;5.30;99.90;;;;;;5045898;28;20438;-83
2021/12/04 00:14:56;;;;;;;3.17;2.87;;;5.00;99.90;;;;;;5021491;28;20439;-83
2021/12/04 00:17:22;;;;;;;3.50;3.20;;;5.10;99.90;;;;;;5041835;28;20444;-83
2021/12/04 00:19:47;;;;;;;3.00;2.70;;;4.80;99.90;;;;;;5058277;28;20200;-84
2021/12/04 00:22:13;;;;;;;3.30;3.00;;;5.00;99.90;;;;;;5051415;28;20185;-84
2021/12/04 00:24:39;;;;;;;3.03;2.80;;;4.90;99.90;;;;;;5025180;28;20647;-83
2021/12/04 00:27:05;;;;;;;2.80;2.60;;;5.10;99.90;;;;;;5051290;28;20210;-85
2021/12/04 00:29:31;;;;;;;3.10;2.90;;;5.00;99.90;;;;;;5035540;28;20182;-85
2021/12/04 00:32:00;;;;;;;3.40;3.10;;;4.80;99.90;;;;;;5057566;28;20494;-83
2021/12/04 00:34:28;;;;;;;3.60;3.30;;;4.70;99.90;;;;;;5044967;28;20431;-85
2021/12/04 00:50:17;;;;;;;3.90;3.60;;;4.70;99.90;;;;;;5034647;28;20956;-85
2021/12/04 00:52:42;;;;;;;3.57;3.27;;;4.90;99.90;;;;;;5072090;28;20525;-81
2021/12/04 00:55:08;;;;;;;5.43;3.63;;;4.90;99.90;;;;;;5053710;28;20193;-83
2021/12/04 00:57:34;;;;;;;4.07;3.60;;;5.00;99.90;;;;;;5072697;28;20203;-84
2021/12/04 01:00:00;;;;;;;3.70;3.40;;;5.00;99.90;;;;;;5046571;28;20710;-83
2021/12/04 01:02:26;;;;;;;3.70;3.40;;;5.00;99.90;;;;;;5039925;28;20185;-83
2021/12/04 01:04:52;;;;;;;4.30;3.90;;;4.80;99.90;;;;;;5045532;28;20478;-84
2021/12/04 01:07:20;;;;;;;4.30;3.90;;;5.00;99.90;;;;;;5036119;28;20444;-85
2021/12/04 01:09:46;;;;;;;4.40;3.87;;;4.70;99.90;;;;;;5056367;28;20424;-85
2021/12/04 01:12:13;;;;;;;4.30;3.90;;;5.00;99.90;;;;;;5037067;28;20504;-85
2021/12/04 01:14:39;;;;;;;4.23;3.83;;;4.80;99.90;;;;;;5056336;28;20443;-82
2021/12/04 01:17:05;;;;;;;4.93;4.17;;;4.90;99.90;;;;;;5053867;28;20467;-83
2021/12/04 01:19:31;;;;;;;5.33;4.83;;;4.90;99.90;;;;;;5040514;28;20432;-85
2021/12/04 01:21:58;;;;;;;6.47;4.23;;;5.00;99.90;;;;;;5050668;28;20553;-83
2021/12/04 01:24:24;;;;;;;4.90;4.47;;;4.90;99.90;;;;;;5051374;28;20216;-84
2021/12/04 01:26:50;;;;;;;8.03;4.00;;;4.90;99.90;;;;;;5044150;28;20530;-85
2021/12/04 01:29:17;;;;;;;5.40;4.13;;;4.70;99.90;;;;;;5029700;28;20472;-84
2021/12/04 01:31:43;;;;;;;4.60;4.20;;;4.70;99.90;;;;;;5054551;28;20546;-84
2021/12/04 01:34:09;;;;;;;4.83;4.43;;;4.80;99.90;;;;;;5050817;28;20428;-82
2021/12/04 01:36:35;;;;;;;4.90;4.43;;;4.90;99.90;;;;;;5055094;28;21043;-83
2021/12/04 01:39:03;;;;;;;4.90;4.40;;;4.80;99.90;;;;;;5072781;28;20856;-83
2021/12/04 01:41:29;;;;;;;4.90;4.40;;;4.90;99.90;;;;;;5040887;28;21046;-85
2021/12/04 01:43:58;;;;;;;5.53;4.97;;;4.70;99.90;;;;;;5036909;28;20502;-85
2021/12/04 01:46:24;;;;;;;4.73;4.23;;;4.80;99.90;;;;;;5055082;28;20217;-84
2021/12/04 01:48:49;;;;;;;4.13;3.73;;;4.90;99.90;;;;;;5057256;28;20431;-82
2021/12/04 01:51:15;;;;;;;4.30;3.90;;;4.90;99.90;;;;;;5043712;28;20428;-84
2021/12/04 01:53:41;;;;;;;4.93;4.40;;;5.00;99.90;;;;;;5058201;28;20568;-84
2021/12/04 01:56:06;;;;;;;5.00;4.50;;;4.80;99.90;;;;;;5055564;28;20200;-83
2021/12/04 01:58:33;;;;;;;5.47;4.37;;;4.90;99.90;;;;;;5043681;28;20188;-84
2021/12/04 02:00:58;;;;;;;4.20;3.80;;;4.90;99.90;;;;;;5072195;28;20763;-83
2021/12/04 02:03:24;;;;;;;5.00;4.50;;;5.00;99.90;;;;;;5073270;28;20478;-84
2021/12/04 02:05:50;;;;;;;5.57;4.50;;;4.80;99.90;;;;;;5053975;28;20200;-85
2021/12/04 02:08:19;;;;;;;4.80;4.30;;;5.00;99.90;;;;;;5072902;28;20264;-83
2021/12/04 02:10:47;;;;;;;4.83;4.10;;;5.10;99.90;;;;;;5026106;28;20419;-83
2021/12/04 02:13:13;;;;;;;3.83;3.53;;;5.00;99.90;;;;;;5043510;28;20420;-83
2021/12/04 02:15:39;;;;;;;4.40;3.97;;;5.00;99.90;;;;;;5038305;28;20443;-85
2021/12/04 02:18:06;;;;;;;4.40;4.00;;;5.00;99.90;;;;;;5055299;28;20741;-83
2021/12/04 02:20:34;;;;;;;4.57;4.17;;;5.10;99.90;;;;;;5039600;28;20196;-85
2021/12/04 02:23:01;;;;;;;5.87;4.40;;;5.00;99.90;;;;;;5055772;28;20498;-84
2021/12/04 02:25:27;;;;;;;4.10;3.80;;;5.10;99.90;;;;;;5059855;28;20450;-85
2021/12/04 02:27:53;;;;;;;4.07;3.67;;;4.90;99.90;;;;;;5025827;28;20443;-83
2021/12/04 02:30:22;;;;;;;6.27;4.30;;;5.10;99.90;;;;;;5037721;28;20452;-83
2021/12/04 02:32:48;;;;;;;4.60;4.10;;;5.00;99.90;;;;;;5027599;28;20207;-85
2021/12/04 02:35:15;;;;;;;4.80;4.40;;;5.00;99.90;;;;;;5072754;28;20476;-84
2021/12/04 02:37:41;;;;;;;5.10;4.60;;;5.00;99.90;;;;;;5042215;28;20471;-85
2021/12/04 02:40:10;;;;;;;5.10;4.60;;;5.20;99.90;;;;;;5022224;28;20449;-83
2021/12/04 02:42:37;;;;;;;4.53;4.13;;;5.10;99.90;;;;;;5055904;28;20267;-84
2021/12/04 02:45:09;;;;;;;4.50;4.10;;;5.00;99.90;;;;;;5054440;28;21251;-82
2021/12/04 02:47:35;;;;;;;5.40;4.40;;;5.20;99.90;;;;;;5050449;28;20482;-83
2021/12/04 02:50:05;;;;;;;5.30;4.07;;;5.10;99.90;;;;;;5055430;28;20514;-84
2021/12/04 02:52:31;;;;;;;4.80;4.40;;;5.10;99.90;;;;;;5072211;28;20462;-85
2021/12/04 02:54:57;;;;;;;4.97;4.20;;;5.10;99.90;;;;;;5028757;28;20528;-84
2021/12/04 02:57:23;;;;;;;5.17;4.40;;;5.10;99.90;;;;;;5068595;28;20459;-85
2021/12/04 02:59:49;;;;;;;5.70;4.33;;;5.10;99.90;;;;;;5045287;28;20524;-84
2021/12/04 03:02:21;;;;;;;5.10;4.60;;;5.00;99.90;;;;;;5055550;28;20424;-82
2021/12/04 03:04:50;;;;;;;5.40;4.50;;;5.00;99.90;;;;;;5049471;28;20463;-85
2021/12/04 03:07:17;;;;;;;4.50;4.00;;;5.00;99.90;;;;;;5055527;28;20534;-85
2021/12/04 03:09:43;;;;;;;4.97;4.50;;;5.20;99.90;;;;;;5038706;28;20447;-85
2021/12/04 03:12:10;;;;;;;4.90;4.40;;;5.20;99.90;;;;;;5054968;28;20419;-84
2021/12/04 03:14:36;;;;;;;5.30;4.80;;;5.10;99.90;;;;;;5044154;28;20428;-85
2021/12/04 03:17:02;;;;;;;5.77;4.30;;;5.20;99.90;;;;;;5067275;28;20459;-84
2021/12/04 03:19:28;;;;;;;5.03;4.13;;;5.20;99.90;;;;;;5029582;28;20510;-85
2021/12/04 03:21:55;;;;;;;4.90;4.40;;;5.30;99.90;;;;;;5071841;28;20537;-85
2021/12/04 03:24:22;;;;;;;5.17;4.47;;;5.10;99.90;;;;;;5027004;28;20347;-83
2021/12/04 03:26:50;;;;;;;6.53;4.90;;;5.20;99.90;;;;;;5052639;28;20807;-83
2021/12/04 03:29:19;;;;;;;4.77;4.27;;;5.20;99.90;;;;;;5043373;28;20416;-82
2021/12/04 03:42:45;;;;;;;5.07;4.40;;;5.20;99.90;;;;;;5032311;28;20440;-84
2021/12/04 03:45:11;;;;;;;6.27;4.40;;;5.10;99.90;;;;;;5054474;28;20795;-84
2021/12/04 03:47:41;;;;;;;5.23;4.73;;;5.10;99.90;;;;;;5054792;28;20235;-85
2021/12/04 03:50:08;;;;;;;4.63;4.13;;;5.30;99.90;;;;;;5070760;28;20420;-82
2021/12/04 03:52:36;;;;;;;4.57;4.17;;;5.00;99.90;;;;;;5041248;28;20419;-82
2021/12/04 03:55:03;;;;;;;4.50;3.83;;;5.30;99.90;;;;;;5054014;28;20467;-83
2021/12/04 03:57:29;;;;;;;4.73;4.20;;;5.20;99.90;;;;;;5034410;28;20454;-83
2021/12/04 03:59:55;;;;;;;4.20;3.83;;;5.20;99.90;;;;;;5046223;28;20498;-82
2021/12/04 04:02:21;;;;;;;5.70;4.43;;;5.30;99.90;;;;;;5070886;28;20439;-84
2021/12/04 04:04:46;;;;;;;5.10;4.50;;;5.20;99.90;;;;;;5054626;28;20209;-82
2021/12/04 04:07:12;;;;;;;5.30;4.27;;;5.20;99.90;;;;;;5041351;28;20299;-83
2021/12/04 04:09:38;;;;;;;5.40;4.43;;;5.10;99.90;;;;;;5035873;28;20185;-86
2021/12/04 04:12:04;;;;;;;4.57;4.17;;;5.00;99.90;;;;;;5050572;28;20202;-84
2021/12/04 04:14:30;;;;;;;4.53;4.10;;;5.20;99.90;;;;;;5045009;28;20477;-82
2021/12/04 04:16:57;;;;;;;4.47;4.03;;;5.20;99.90;;;;;;5071087;28;20459;-84
2021/12/04 04:19:25;;;;;;;4.77;4.27;;;5.20;99.90;;;;;;5071193;28;20195;-84
2021/12/04 04:21:55;;;;;;;5.13;4.67;;;5.40;99.90;;;;;;5049392;28;20428;-84
2021/12/04 04:24:21;;;;;;;4.90;4.10;;;5.10;99.90;;;;;;5045703;28;20487;-83
2021/12/04 04:26:47;;;;;;;4.97;4.07;;;5.00;99.90;;;;;;5058228;28;21093;-83
2021/12/04 04:29:14;;;;;;;6.07;4.60;;;5.30;99.90;;;;;;5026976;28;20420;-82
2021/12/04 04:31:46;;;;;;;5.00;4.50;;;5.20;99.90;;;;;;5040202;28;20232;-85
2021/12/04 04:34:27;;;;;;;6.80;5.03;;;5.20;99.90;;;;;;5057670;28;20430;-82
2021/12/04 05:12:11;;;;;;;5.97;4.63;;;5.30;99.90;;;;;;5070981;28;20432;-85
2021/12/04 05:14:40;;;;;;;4.67;4.20;;;5.20;99.90;;;;;;5050179;28;20488;-85
2021/12/04 05:17:15;;;;;;;4.63;4.20;;;5.20;99.90;;;;;;5034199;28;20470;-85
2021/12/04 05:20:20;;;;;;;5.20;4.70;;;5.20;99.90;;;;;;5058151;28;20761;-84
2021/12/04 05:22:33;;;;;;;4.53;4.13;;;5.10;99.90;;;;;;5040557;28;20964;-84
2021/12/04 05:24:59;;;;;;;4.20;3.80;;;5.20;99.90;;;;;;5053934;28;20471;-83
2021/12/04 05:27:24;;;;;;;5.10;4.60;;;5.20;99.90;;;;;;5031166;28;20213;-82
2021/12/04 05:29:50;;;;;;;4.67;4.27;;;5.20;99.90;;;;;;5050271;28;20282;-84
2021/12/04 05:32:16;;;;;;;4.33;3.93;;;5.00;99.90;;;;;;5032671;28;20463;-82
2021/12/04 05:34:42;;;;;;;4.00;3.50;;;5.20;99.90;;;;;;5037132;28;20193;-85
2021/12/04 05:37:08;;;;;;;5.87;3.90;;;5.10;99.90;;;;;;5038156;28;20443;-83
2021/12/04 05:39:34;;;;;;;4.70;4.03;;;5.20;99.90;;;;;;5039583;28;20960;-83
2021/12/04 05:42:01;;;;;;;6.47;4.67;;;5.20;99.90;;;;;;5056587;28;20872;-85
2021/12/04 05:44:28;;;;;;;5.33;4.50;;;5.30;99.90;;;;;;5056031;28;21052;-82
2021/12/04 05:55:14;;;;;;;5.00;4.50;;;5.20;99.90;;;;;;5027143;28;20432;-84
2021/12/04 05:57:40;;;;;;;4.20;3.80;;;5.20;99.90;;;;;;5039807;28;20453;-84
2021/12/04 06:00:09;;;;;;;5.50;4.37;;;5.10;99.90;;;;;;5026780;28;20428;-84
2021/12/04 06:02:35;;;;;;;4.73;4.20;;;5.40;99.90;;;;;;5039357;28;20459;-83
2021/12/04 06:05:01;;;;;;;5.43;4.13;;;5.00;99.90;;;;;;5039478;28;20459;-84
2021/12/04 06:07:26;;;;;;;4.43;4.03;;;5.20;99.90;;;;;;5038964;28;20213;-83
2021/12/04 06:09:52;;;;;;;4.83;4.33;;;5.50;99.90;;;;;;5027009;28;20200;-82
2021/12/04 06:12:18;;;;;;;6.80;4.30;;;5.30;99.90;;;;;;5033379;28;20554;-82
2021/12/04 06:14:45;;;;;;;4.60;4.00;;;5.10;99.90;;;;;;5052451;28;20492;-84
2021/12/04 06:17:12;;;;;;;4.70;3.70;;;5.30;99.90;;;;;;5056168;28;20236;-84
2021/12/04 06:22:37;;;;;;;4.90;4.00;;;5.10;99.90;;;;;;5046841;28;20455;-81
2021/12/04 06:25:11;;;;;;;3.87;3.50;;;5.20;99.90;;;;;;5054152;28;20466;-82
2021/12/04 06:27:38;;;;;;;4.53;3.70;;;5.10;99.90;;;;;;5043795;28;20452;-84
2021/12/04 06:30:09;;;;;;;5.93;4.67;;;5.20;99.90;;;;;;5049565;28;20423;-82
2021/12/04 06:32:36;;;;;;;4.70;4.20;;;5.20;99.90;;;;;;5047233;28;20496;-85
2021/12/04 06:35:04;;;;;;;6.20;4.10;;;5.30;99.90;;;;;;5039200;28;20769;-85
2021/12/04 06:37:30;;;;;;;3.33;3.03;;;5.10;99.90;;;;;;5042558;28;20459;-85
2021/12/04 06:39:56;;;;;;;4.67;4.17;;;5.20;99.90;;;;;;5034887;28;20937;-85
2021/12/04 06:42:22;;;;;;;4.40;4.00;;;5.30;99.90;;;;;;5038800;28;20188;-82
2021/12/04 06:44:48;;;;;;;4.53;3.67;;;5.10;99.90;;;;;;5021966;28;20201;-84
2021/12/04 06:47:13;;;;;;;4.40;3.90;;;5.10;99.90;;;;;;5054533;28;20301;-85
2021/12/04 06:49:42;;;;;;;4.60;4.20;;;5.30;99.90;;;;;;5036549;28;20432;-82
2021/12/04 06:52:14;;;;;;;4.20;3.90;;;5.10;99.90;;;;;;5070589;28;20272;-82
2021/12/04 06:54:44;;;;;;;5.60;4.73;;;5.20;99.90;;;;;;5039849;28;20944;-84
2021/12/04 06:57:11;;;;;;;4.73;4.20;;;5.20;99.90;;;;;;5025511;28;20452;-84
2021/12/04 06:59:39;;;;;;;4.73;4.23;;;5.10;99.90;;;;;;5030821;28;20423;-85
2021/12/04 07:02:05;;;;;;;5.27;4.73;;;5.20;99.90;;;;;;5034517;28;20455;-83
2021/12/04 07:04:37;;;;;;;4.47;4.07;;;5.30;99.90;;;;;;5055032;28;21229;-85
2021/12/04 07:07:08;;;;;;;5.80;5.20;;;5.40;99.90;;;;;;5039032;28;20526;-82
2021/12/04 07:09:36;;;;;;;4.97;4.37;;;5.40;99.90;;;;;;5044429;28;20503;-81
2021/12/04 07:12:02;;;;;;;6.50;5.13;;;5.30;99.90;;;;;;5049876;28;20938;-82
2021/12/04 07:14:29;;;;;;;5.40;4.60;;;5.20;99.90;;;;;;5035592;28;20443;-83
2021/12/04 07:16:56;;;;;;;5.53;4.97;;;5.30;99.90;;;;;;5047542;28;20920;-83
2021/12/04 07:19:21;;;;;;;6.10;4.47;;;5.20;99.90;;;;;;5055693;28;20442;-85
2021/12/04 07:21:47;;;;;;;6.43;5.17;;;5.20;99.90;;;;;;5033977;28;20432;-84
2021/12/04 07:24:14;;;;;;;6.50;5.03;;;5.30;99.90;;;;;;5063996;28;20272;-82
2021/12/04 07:26:40;;;;;;;5.97;5.07;;;5.20;99.90;;;;;;5022647;28;20454;-85
2021/12/04 07:29:06;;;;;;;5.60;4.57;;;5.40;99.90;;;;;;5055727;28;20506;-84
2021/12/04 07:31:33;;;;;;;6.27;4.90;;;5.20;99.90;;;;;;5058707;28;20431;-85
2021/12/04 07:33:59;;;;;;;7.20;5.20;;;5.30;99.90;;;;;;5054393;28;20862;-85
2021/12/04 07:36:25;;;;;;;7.97;5.97;;;5.10;99.90;;;;;;5035863;28;21086;-85
2021/12/04 07:38:51;;;;;;;7.10;4.87;;;5.10;99.90;;;;;;5053591;28;20460;-85
2021/12/04 07:41:17;;;;;;;8.67;5.40;;;5.10;99.90;;;;;;5065757;28;20193;-84
2021/12/04 07:43:42;;;;;;;8.00;5.70;;;5.20;99.90;;;;;;5043273;28;20460;-83
2021/12/04 07:46:08;;;;;;;7.03;5.93;;;5.20;99.90;;;;;;5049101;28;20446;-83
2021/12/04 07:48:34;;;;;;;6.23;5.63;;;5.30;99.90;;;;;;5050475;28;20189;-85
2021/12/04 07:51:01;;;;;;;6.57;5.90;;;5.40;99.90;;;;;;5034148;28;20182;-83
2021/12/04 07:53:28;;;;;;;6.07;5.47;;;5.60;99.90;;;;;;5044350;28;20225;-83
2021/12/04 07:55:54;;;;;;;7.63;6.30;;;5.30;99.90;;;;;;5052956;28;20430;-84
2021/12/04 07:58:19;;;;;;;7.73;5.47;;;5.30;99.90;;;;;;5034945;28;20424;-83
2021/12/04 08:00:45;;;;;;;6.50;5.60;;;5.20;99.90;;;;;;5065240;28;20221;-82
2021/12/04 08:03:11;;;;;;;7.27;6.20;;;5.20;99.90;;;;;;5062110;28;20199;-84
2021/12/04 08:05:37;;;;;;;7.73;6.70;;;5.30;99.90;;;;;;5042112;28;20435;-85
2021/12/04 08:08:03;;;;;;;9.63;6.20;;;5.30;99.90;;;;;;5040973;28;20236;-83
2021/12/04 08:10:29;;;;;;;7.13;5.87;;;5.40;99.90;;;;;;5058199;28;20239;-83
2021/12/04 08:12:56;;;;;;;7.60;6.77;;;5.30;99.90;;;;;;5063440;28;20926;-83
2021/12/04 08:15:22;;;;;;;7.60;6.40;;;5.30;99.90;;;;;;5040355;28;20446;-85
2021/12/04 08:17:47;;;;;;;8.90;6.60;;;5.30;99.90;;;;;;5067558;28;20474;-85
2021/12/04 08:20:15;;;;;;;7.60;6.80;;;5.50;99.90;;;;;;5056048;28;20432;-82
2021/12/04 08:22:41;;;;;;;7.03;6.00;;;5.40;99.90;;;;;;5058086;28;20243;-82
2021/12/04 08:25:10;;;;;;;10.10;6.67;;;5.40;99.90;;;;;;5044799;28;20882;-83
2021/12/04 08:27:36;;;;;;;7.90;6.97;;;5.50;99.90;;;;;;5029999;28;20515;-85
2021/12/04 08:30:05;;;;;;;8.37;6.23;;;5.30;99.90;;;;;;5056707;28;20431;-85
2021/12/04 08:32:31;;;;;;;9.07;6.47;;;5.40;99.90;;;;;;5057967;28;20968;-82
2021/12/04 08:34:56;;;;;;;7.63;6.20;;;5.60;99.90;;;;;;5056963;28;20439;-83
2021/12/04 08:37:22;;;;;;;8.80;6.73;;;5.40;99.90;;;;;;5026043;28;20592;-83
2021/12/04 08:39:49;;;;;;;7.33;6.20;;;5.40;99.90;;;;;;5025589;28;20229;-85
2021/12/04 08:42:15;;;;;;;9.60;7.43;;;5.40;99.90;;;;;;5040466;28;20201;-85
2021/12/04 08:44:43;;;;;;;10.63;7.30;;;5.30;99.90;;;;;;5037250;28;20471;-83
2021/12/04 08:47:09;;;;;;;9.50;7.23;;;5.20;99.90;;;;;;5050661;28;20447;-85
2021/12/04 08:49:35;;;;;;;8.57;6.90;;;5.30;99.90;;;;;;5041166;28;20462;-85
2021/12/04 08:52:03;;;;;;;8.90;6.57;;;5.30;99.90;;;;;;5057720;28;20420;-85
2021/12/04 08:54:29;;;;;;;8.93;7.20;;;5.50;99.90;;;;;;5057888;28;20757;-84
2021/12/04 08:56:55;;;;;;;8.57;6.93;;;5.10;99.90;;;;;;5054342;28;20926;-84
2021/12/04 08:59:21;;;;;;;10.40;7.27;;;5.30;99.90;;;;;;5028061;28;20438;-84
2021/12/04 09:01:47;;;;;;;11.03;7.93;;;5.20;99.90;;;;;;5057847;28;20246;-85
2021/12/04 09:04:18;;;;;;;8.23;6.77;;;5.30;99.90;;;;;;5037678;28;20480;-85
2021/12/04 09:06:44;;;;;;;10.37;7.60;;;5.20;99.90;;;;;;5041540;28;20451;-85
2021/12/04 09:09:12;;;;;;;9.83;7.50;;;5.20;99.90;;;;;;5051767;28;20515;-84
2021/12/04 09:11:42;;;;;;;10.07;7.77;;;5.50;99.90;;;;;;5035191;28;20423;-85
2021/12/04 09:14:10;;;;;;;9.90;6.87;;;5.40;99.90;;;;;;5067254;28;20462;-84
2021/12/04 09:16:35;;;;;;;9.60;7.43;;;5.20;99.90;;;;;;5011311;28;20832;-83
2021/12/04 09:19:01;;;;;;;11.17;7.60;;;5.40;99.90;;;;;;5040122;28;20447;-82
2021/12/04 09:21:28;;;;;;;8.97;7.37;;;5.30;99.90;;;;;;5056257;28;20189;-81
2021/12/04 09:24:37;;;;;;;8.53;7.70;;;5.50;99.90;;;;;;5025006;28;20234;-85
2021/12/04 09:32:06;;;;;;;7.80;6.33;;;5.30;99.90;;;;;;5045960;28;20742;-84
2021/12/04 09:35:10;;;;;;;9.27;7.50;;;5.30;99.90;;;;;;5055652;28;20439;-81
2021/12/04 10:02:09;;;;;;;7.73;6.73;;;5.50;99.90;;;;;;5043413;28;20455;-85
2021/12/04 10:35:00;;;;;;;7.00;5.97;;;5.70;99.90;;;;;;5053083;28;20526;-85
2021/12/04 10:37:28;;;;;;;8.13;6.47;;;5.60;99.90;;;;;;5055295;28;20504;-81
2021/12/04 10:40:06;;;;;;;6.10;5.30;;;5.70;99.90;;;;;;5072708;28;20453;-82
2021/12/04 10:43:04;;;;;;;5.60;4.90;;;5.60;99.90;;;;;;5023648;28;20518;-84
2021/12/04 10:45:33;;;;;;;5.53;5.00;;;5.80;99.90;;;;;;5041407;28;20423;-85
2021/12/04 10:48:03;;;;;;;7.00;5.70;;;5.60;99.90;;;;;;5055221;28;20427;-84
2021/12/04 10:53:01;;;;;;;6.13;5.10;;;5.70;99.90;;;;;;5062907;28;20404;-84
2021/12/04 11:01:26;;;;;;;6.03;5.17;;;5.60;99.90;;;;;;5059826;28;20404;-85
2021/12/04 11:40:28;;;;;;;4.17;3.47;;;6.00;99.90;;;;;;5041579;28;21141;-85
2021/12/04 11:43:00;;;;;;;5.20;3.90;;;6.00;99.90;;;;;;5027686;28;20435;-83
2021/12/04 11:45:31;;;;;;;4.60;4.13;;;5.60;99.90;;;;;;5057936;28;20430;-83
2021/12/04 11:48:00;;;;;;;5.07;4.47;;;5.80;99.90;;;;;;5062330;28;20599;-82
2021/12/04 11:50:34;;;;;;;4.73;4.33;;;5.80;99.90;;;;;;5074904;28;20934;-83
2021/12/04 11:53:04;;;;;;;4.13;3.73;;;5.60;99.90;;;;;;5068616;28;20408;-85
2021/12/04 11:55:36;;;;;;;4.10;3.70;;;5.40;99.90;;;;;;5059140;28;20944;-85
2021/12/04 11:58:02;;;;;;;4.13;3.73;;;6.00;99.90;;;;;;5057163;28;20462;-85
2021/12/04 12:00:34;;;;;;;4.10;3.43;;;5.90;99.90;;;;;;5074081;28;20997;-84
2021/12/04 12:03:19;;;;;;;5.17;4.30;;;5.90;99.90;;;;;;5030843;28;20435;-82
2021/12/04 12:05:54;;;;;;;4.50;4.00;;;5.80;99.90;;;;;;5073849;28;20750;-85
2021/12/04 12:08:31;;;;;;;4.63;4.23;;;6.10;99.90;;;;;;5056896;28;21176;-85
2021/12/04 12:11:06;;;;;;;4.90;4.20;;;5.90;99.90;;;;;;5063172;28;20403;-85
2021/12/04 12:13:44;;;;;;;4.40;4.00;;;6.00;99.90;;;;;;5053720;28;20431;-85
2021/12/04 12:16:19;;;;;;;4.17;3.73;;;6.00;99.90;;;;;;5026706;28;20489;-83
2021/12/04 12:18:54;;;;;;;3.87;3.50;;;6.00;99.90;;;;;;5061529;28;20460;-85
2021/12/04 12:21:26;;;;;;;4.43;4.03;;;6.20;99.90;;;;;;5041588;28;20939;-85
2021/12/04 12:27:01;;;;;;;4.30;3.90;;;6.20;99.90;;;;;;5059615;28;20462;-83
2021/12/04 12:32:48;;;;;;;5.23;4.70;;;6.20;99.90;;;;;;5074986;28;20470;-84
2021/12/04 12:38:49;;;;;;;4.60;4.20;;;6.20;99.90;;;;;;5060375;28;20499;-84
2021/12/04 12:41:37;;;;;;;4.80;4.30;;;6.00;99.90;;;;;;5071119;28;20451;-82
2021/12/04 12:44:28;;;;;;;4.83;4.40;;;6.00;99.90;;;;;;5019605;28;20516;-85
2021/12/04 12:46:56;;;;;;;4.40;4.00;;;6.10;99.90;;;;;;5054842;28;20617;-84
2021/12/04 12:49:41;;;;;;;4.33;3.93;;;6.00;99.90;;;;;;5026874;28;20983;-84
2021/12/04 12:52:14;;;;;;;4.67;4.17;;;6.10;99.90;;;;;;5054131;28;20450;-82
2021/12/04 12:54:55;;;;;;;4.40;4.00;;;6.00;99.90;;;;;;5050336;28;20423;-84
2021/12/04 12:57:26;;;;;;;3.67;3.37;;;6.10;99.90;;;;;;5043772;28;20988;-83
2021/12/04 13:14:20;;;;;;;4.13;3.73;;;6.20;99.90;;;;;;5067195;28;20788;-85
2021/12/04 13:16:55;;;;;;;3.50;3.20;;;6.30;99.90;;;;;;5050032;28;20961;-82
2021/12/04 13:19:23;;;;;;;4.50;4.10;;;6.20;99.90;;;;;;5047842;28;20424;-83
2021/12/04 13:21:51;;;;;;;4.10;3.50;;;6.40;99.90;;;;;;5040384;28;20793;-83
2021/12/04 13:24:21;;;;;;;4.10;3.70;;;6.30;99.90;;;;;;5051115;28;20467;-83
2021/12/04 13:26:52;;;;;;;4.10;3.80;;;6.30;99.90;;;;;;5055361;28;20841;-83
2021/12/04 13:29:21;;;;;;;3.70;3.40;;;6.40;99.90;;;;;;5057492;28;20423;-85
2021/12/04 13:31:47;;;;;;;3.47;3.17;;;6.60;99.90;;;;;;5060415;28;20439;-84
2021/12/04 13:34:21;;;;;;;3.60;3.30;;;6.60;99.90;;;;;;5062671;28;20428;-83
2021/12/04 13:36:47;;;;;;;3.10;2.80;;;6.40;99.90;;;;;;5085302;28;21161;-85
2021/12/04 13:39:15;;;;;;;3.60;3.20;;;6.40;99.90;;;;;;5053251;28;20655;-85
2021/12/04 13:41:43;;;;;;;4.30;3.90;;;6.30;99.90;;;;;;5033007;28;20487;-84
2021/12/04 13:44:11;;;;;;;3.80;3.40;;;6.60;99.90;;;;;;5032547;28;20489;-85
2021/12/04 13:46:41;;;;;;;3.80;3.03;;;6.60;99.90;;;;;;5032132;28;20883;-85
2021/12/04 13:49:07;;;;;;;4.00;3.63;;;6.60;99.90;;;;;;5055159;28;20472;-85
2021/12/04 13:51:32;;;;;;;5.37;4.87;;;6.30;99.90;;;;;;5039585;28;20441;-83
2021/12/04 13:54:01;;;;;;;4.93;4.43;;;6.20;99.90;;;;;;5031673;28;21003;-85
2021/12/04 13:56:27;;;;;;;6.03;5.43;;;6.30;99.90;;;;;;5048613;28;20216;-85
2021/12/04 13:58:58;;;;;;;5.50;5.00;;;6.30;99.90;;;;;;5068795;28;20419;-83
2021/12/04 14:01:25;;;;;;;5.87;5.27;;;6.10;99.90;;;;;;5040603;28;20216;-82
2021/12/04 14:04:03;;;;;;;6.70;6.10;;;6.20;99.90;;;;;;5042887;28;20502;-83
2021/12/04 14:06:30;;;;;;;5.70;5.20;;;6.20;99.90;;;;;;5055961;28;20911;-82
2021/12/04 14:08:58;;;;;;;5.50;4.40;;;6.20;99.90;;;;;;5040170;28;20558;-85
2021/12/04 14:11:37;;;;;;;5.60;4.50;;;6.20;99.90;;;;;;5052919;28;20181;-83
2021/12/04 14:14:14;;;;;;;4.43;4.07;;;6.30;99.90;;;;;;5037255;28;20428;-84
2021/12/04 14:16:41;;;;;;;4.90;4.40;;;6.30;99.90;;;;;;5049966;28;20486;-84
2021/12/04 14:19:16;;;;;;;4.23;3.83;;;6.30;99.90;;;;;;5025571;28;20451;-83
2021/12/04 14:21:58;;;;;;;4.50;4.10;;;6.30;99.90;;;;;;5055265;28;20517;-83
2021/12/04 14:24:45;;;;;;;4.67;4.03;;;6.30;99.90;;;;;;5039084;28;20470;-85
2021/12/04 14:27:16;;;;;;;4.40;4.00;;;6.40;99.90;;;;;;5041323;28;20431;-83
2021/12/04 14:29:46;;;;;;;5.37;4.00;;;6.40;99.90;;;;;;5068822;28;20411;-83
2021/12/04 14:32:14;;;;;;;4.40;4.00;;;6.50;99.90;;;;;;5014211;28;20463;-85
2021/12/04 14:34:40;;;;;;;4.50;4.07;;;6.40;99.90;;;;;;5049786;28;20519;-83
2021/12/04 14:37:12;;;;;;;4.67;4.27;;;6.40;99.90;;;;;;5053509;28;20867;-85
2021/12/04 14:39:48;;;;;;;4.80;4.40;;;6.20;99.90;;;;;;5049177;28;20790;-82
2021/12/04 14:42:18;;;;;;;5.57;5.07;;;6.30;99.90;;;;;;5065104;28;20411;-85
2021/12/04 14:44:52;;;;;;;4.83;4.43;;;6.20;99.90;;;;;;5024370;28;21000;-83
2021/12/04 14:47:21;;;;;;;5.40;4.87;;;6.40;99.90;;;;;;5066652;28;20455;-85
2021/12/04 14:49:49;;;;;;;5.70;5.20;;;6.20;99.90;;;;;;5032213;28;20500;-85
2021/12/04 14:52:22;;;;;;;6.50;5.90;;;6.40;99.90;;;;;;5037101;28;20435;-85
2021/12/04 14:54:50;;;;;;;6.40;5.80;;;6.20;99.90;;;;;;5055479;28;20783;-85
2021/12/04 14:57:19;;;;;;;6.83;6.23;;;6.30;99.90;;;;;;5042347;28;20440;-83
2021/12/04 14:59:46;;;;;;;6.20;5.60;;;6.20;99.90;;;;;;5037966;28;20473;-85
2021/12/04 15:02:14;;;;;;;5.83;5.27;;;6.10;99.90;;;;;;5052748;28;20570;-83
2021/12/04 15:04:41;;;;;;;7.90;6.23;;;6.30;99.90;;;;;;5061890;28;20451;-84
2021/12/04 15:07:16;;;;;;;7.37;6.40;;;6.00;99.90;;;;;;5053954;28;20992;-84
2021/12/04 15:09:42;;;;;;;7.40;6.70;;;6.10;99.90;;;;;;5054939;28;20498;-85
2021/12/04 15:12:07;;;;;;;7.27;6.67;;;6.30;99.90;;;;;;5024962;28;20462;-82
2021/12/04 15:14:33;;;;;;;7.50;6.73;;;6.20;99.90;;;;;;5030393;28;20657;-84
2021/12/04 15:17:06;;;;;;;7.37;6.27;;;6.40;99.90;;;;;;5055632;28;20204;-84
2021/12/04 15:19:45;;;;;;;8.17;7.37;;;6.10;99.90;;;;;;5043275;28;20466;-85
2021/12/04 15:22:21;;;;;;;6.97;6.27;;;6.40;99.90;;;;;;5061612;28;20439;-83
2021/12/04 15:24:48;;;;;;;8.20;7.20;;;6.40;99.90;;;;;;5061642;28;20436;-84
2021/12/04 15:27:19;;;;;;;8.20;7.40;;;6.50;99.90;;;;;;5041750;28;20516;-85
2021/12/04 15:29:47;;;;;;;6.93;6.23;;;6.40;99.90;;;;;;5078778;28;20520;-85
2021/12/04 15:32:15;;;;;;;7.27;6.60;;;6.40;99.90;;;;;;5056391;28;20452;-82
2021/12/04 15:34:51;;;;;;;6.80;6.20;;;6.50;99.90;;;;;;5059380;28;20466;-83
2021/12/04 15:37:47;;;;;;;6.67;5.97;;;6.40;99.90;;;;;;5078053;28;20451;-84
2021/12/04 15:40:34;;;;;;;7.90;7.30;;;6.50;99.90;;;;;;5044473;28;20435;-85
2021/12/04 15:53:36;;;;;;;3.87;3.57;;;6.10;99.90;;;;;;5043347;28;20419;-85
2021/12/04 15:56:03;;;;;;;4.50;3.63;;;6.10;99.90;;;;;;5031799;28;20435;-83
2021/12/04 15:58:33;;;;;;;4.40;4.00;;;6.10;99.90;;;;;;5034238;28;20197;-84
2021/12/04 16:01:07;;;;;;;3.90;3.60;;;5.80;99.90;;;;;;5072023;28;20481;-85
2021/12/04 16:03:38;;;;;;;3.83;3.53;;;5.90;99.90;;;;;;5024311;28;20463;-85
2021/12/04 16:06:10;;;;;;;3.80;3.10;;;5.90;99.90;;;;;;5032183;28;20788;-85
2021/12/04 16:08:37;;;;;;;4.10;3.70;;;5.80;99.90;;;;;;5063519;28;20481;-85
2021/12/04 16:11:05;;;;;;;4.00;3.47;;;5.80;99.90;;;;;;5021306;28;20434;-82
2021/12/04 16:13:35;;;;;;;3.23;2.93;;;5.80;99.90;;;;;;5007697;28;20432;-83
2021/12/04 16:16:16;;;;;;;4.17;3.77;;;5.70;99.90;;;;;;5050002;28;20998;-83
2021/12/04 16:18:44;;;;;;;4.07;3.67;;;5.80;99.90;;;;;;5047034;28;20431;-83
2021/12/04 16:21:11;;;;;;;3.63;3.33;;;5.80;99.90;;;;;;5029109;28;20447;-83
2021/12/04 16:23:37;;;;;;;3.60;3.30;;;5.80;99.90;;;;;;5035523;28;20463;-85
2021/12/04 16:26:05;;;;;;;3.70;3.40;;;5.70;99.90;;;;;;5070582;28;20816;-83
2021/12/04 16:31:28;;;;;;;3.60;3.30;;;5.90;99.90;;;;;;5044674;28;20547;-86
2021/12/04 16:39:03;;;;;;;3.50;3.20;;;5.80;99.90;;;;;;5074404;28;20431;-84
2021/12/04 16:41:29;;;;;;;3.63;3.33;;;5.80;99.90;;;;;;5024028;28;20420;-85
2021/12/04 16:43:55;;;;;;;3.90;3.50;;;6.00;99.90;;;;;;5056977;28;20467;-84